sensor_id;sensor_type;location;lat;lon;timestamp;temperature;humidity
80426;DHT22;69766;51.476;5.704;2023-12-20T00:01:47;6.70;99.90
80426;DHT22;69766;51.476;5.704;2023-12-20T00:04:13;6.70;99.90
80426;DHT22;69766;51.476;5.704;2023-12-20T00:06:39;6.60;99.90
80426;DHT22;69766;51.476;5.704;2023-12-20T00:09:05;6.70;99.90
80426;DHT22;69766;51.476;5.704;2023-12-20T00:11:34;6.60;99.90
80426;DHT22;69766;51.476;5.704;2023-12-20T00:14:00;6.50;99.90
80426;DHT22;69766;51.476;5.704;2023-12-20T00:16:29;6.50;99.90
80426;DHT22;69766;51.476;5.704;2023-12-20T00:18:54;6.50;99.90
80426;DHT22;69766;51.476;5.704;2023-12-20T00:21:23;6.30;99.90
80426;DHT22;69766;51.476;5.704;2023-12-20T00:23:52;6.20;99.90
80426;DHT22;69766;51.476;5.704;2023-12-20T00:26:29;6.20;99.90
80426;DHT22;69766;51.476;5.704;2023-12-20T00:28:55;6.20;99.90
80426;DHT22;69766;51.476;5.704;2023-12-20T00:31:21;6.10;99.90
80426;DHT22;69766;51.476;5.704;2023-12-20T00:37:12;6.00;99.90
80426;DHT22;69766;51.476;5.704;2023-12-20T00:39:46;5.90;99.90
80426;DHT22;69766;51.476;5.704;2023-12-20T00:46:19;5.90;99.90
80426;DHT22;69766;51.476;5.704;2023-12-20T00:49:00;5.90;99.90
80426;DHT22;69766;51.476;5.704;2023-12-20T00:51:30;5.80;99.90
80426;DHT22;69766;51.476;5.704;2023-12-20T01:00:46;5.60;99.90
80426;DHT22;69766;51.476;5.704;2023-12-20T01:13:17;5.50;99.90
80426;DHT22;69766;51.476;5.704;2023-12-20T01:19:17;5.40;99.90
80426;DHT22;69766;51.476;5.704;2023-12-20T01:22:33;5.40;99.90
80426;DHT22;69766;51.476;5.704;2023-12-20T01:25:01;5.40;99.90
80426;DHT22;69766;51.476;5.704;2023-12-20T01:27:41;5.30;99.90
80426;DHT22;69766;51.476;5.704;2023-12-20T01:30:21;5.30;99.90
80426;DHT22;69766;51.476;5.704;2023-12-20T01:36:15;5.30;99.90
80426;DHT22;69766;51.476;5.704;2023-12-20T01:42:22;5.20;99.90
80426;DHT22;69766;51.476;5.704;2023-12-20T01:44:54;5.30;99.90
80426;DHT22;69766;51.476;5.704;2023-12-20T01:50:46;5.30;99.90
80426;DHT22;69766;51.476;5.704;2023-12-20T01:56:42;5.40;99.90
80426;DHT22;69766;51.476;5.704;2023-12-20T01:59:11;5.40;99.90
80426;DHT22;69766;51.476;5.704;2023-12-20T02:01:38;5.40;99.90
80426;DHT22;69766;51.476;5.704;2023-12-20T02:04:04;5.40;99.90
80426;DHT22;69766;51.476;5.704;2023-12-20T02:06:31;5.50;99.90
80426;DHT22;69766;51.476;5.704;2023-12-20T02:09:01;5.60;99.90
80426;DHT22;69766;51.476;5.704;2023-12-20T02:11:28;5.60;99.90
80426;DHT22;69766;51.476;5.704;2023-12-20T02:13:56;5.50;99.90
80426;DHT22;69766;51.476;5.704;2023-12-20T02:16:22;5.60;99.90
80426;DHT22;69766;51.476;5.704;2023-12-20T02:18:48;5.50;99.90
80426;DHT22;69766;51.476;5.704;2023-12-20T02:21:14;5.50;99.90
80426;DHT22;69766;51.476;5.704;2023-12-20T02:23:55;5.40;99.90
80426;DHT22;69766;51.476;5.704;2023-12-20T02:26:24;5.40;99.90
80426;DHT22;69766;51.476;5.704;2023-12-20T02:28:50;5.30;99.90
80426;DHT22;69766;51.476;5.704;2023-12-20T02:31:16;5.50;99.90
80426;DHT22;69766;51.476;5.704;2023-12-20T02:33:42;5.40;99.90
80426;DHT22;69766;51.476;5.704;2023-12-20T02:36:08;5.30;99.90
80426;DHT22;69766;51.476;5.704;2023-12-20T02:38:34;5.30;99.90
80426;DHT22;69766;51.476;5.704;2023-12-20T02:41:02;5.40;99.90
80426;DHT22;69766;51.476;5.704;2023-12-20T02:43:28;5.50;99.90
80426;DHT22;69766;51.476;5.704;2023-12-20T02:46:00;5.40;99.90
80426;DHT22;69766;51.476;5.704;2023-12-20T02:48:33;5.40;99.90
80426;DHT22;69766;51.476;5.704;2023-12-20T02:51:01;5.30;99.90
80426;DHT22;69766;51.476;5.704;2023-12-20T02:53:27;5.30;99.90
80426;DHT22;69766;51.476;5.704;2023-12-20T02:55:53;5.30;99.90
80426;DHT22;69766;51.476;5.704;2023-12-20T03:02:21;5.30;99.90
80426;DHT22;69766;51.476;5.704;2023-12-20T03:08:41;5.30;99.90
80426;DHT22;69766;51.476;5.704;2023-12-20T03:14:35;5.30;99.90
80426;DHT22;69766;51.476;5.704;2023-12-20T03:17:14;5.40;99.90
80426;DHT22;69766;51.476;5.704;2023-12-20T03:23:35;5.50;99.90
80426;DHT22;69766;51.476;5.704;2023-12-20T03:29:34;5.50;99.90
80426;DHT22;69766;51.476;5.704;2023-12-20T03:35:41;5.50;99.90
80426;DHT22;69766;51.476;5.704;2023-12-20T03:41:56;5.50;99.90
80426;DHT22;69766;51.476;5.704;2023-12-20T04:48:34;5.90;99.90
80426;DHT22;69766;51.476;5.704;2023-12-20T06:25:05;6.40;99.90
80426;DHT22;69766;51.476;5.704;2023-12-20T06:27:35;6.30;99.90
80426;DHT22;69766;51.476;5.704;2023-12-20T06:30:04;6.40;99.90
80426;DHT22;69766;51.476;5.704;2023-12-20T06:32:30;6.30;99.90
80426;DHT22;69766;51.476;5.704;2023-12-20T06:34:58;6.40;99.90
80426;DHT22;69766;51.476;5.704;2023-12-20T06:37:35;6.40;99.90
80426;DHT22;69766;51.476;5.704;2023-12-20T06:40:04;6.40;99.90
80426;DHT22;69766;51.476;5.704;2023-12-20T06:42:34;6.40;99.90
80426;DHT22;69766;51.476;5.704;2023-12-20T06:45:06;6.30;99.90
80426;DHT22;69766;51.476;5.704;2023-12-20T06:47:52;6.30;99.90
80426;DHT22;69766;51.476;5.704;2023-12-20T06:50:24;6.30;99.90
80426;DHT22;69766;51.476;5.704;2023-12-20T06:52:51;6.30;99.90
80426;DHT22;69766;51.476;5.704;2023-12-20T06:55:29;6.20;99.90
80426;DHT22;69766;51.476;5.704;2023-12-20T06:57:56;6.10;99.90
80426;DHT22;69766;51.476;5.704;2023-12-20T07:04:06;6.10;99.90
80426;DHT22;69766;51.476;5.704;2023-12-20T07:06:32;6.10;99.90
80426;DHT22;69766;51.476;5.704;2023-12-20T07:09:00;6.10;99.90
80426;DHT22;69766;51.476;5.704;2023-12-20T07:11:26;6.00;99.90
80426;DHT22;69766;51.476;5.704;2023-12-20T07:13:59;6.10;99.90
80426;DHT22;69766;51.476;5.704;2023-12-20T07:16:28;6.10;99.90
80426;DHT22;69766;51.476;5.704;2023-12-20T07:18:57;6.10;99.90
80426;DHT22;69766;51.476;5.704;2023-12-20T07:21:27;6.00;99.90
80426;DHT22;69766;51.476;5.704;2023-12-20T07:23:53;6.00;99.90
80426;DHT22;69766;51.476;5.704;2023-12-20T07:26:22;6.10;99.90
80426;DHT22;69766;51.476;5.704;2023-12-20T07:28:53;6.10;99.90
80426;DHT22;69766;51.476;5.704;2023-12-20T07:31:29;6.10;99.90
80426;DHT22;69766;51.476;5.704;2023-12-20T07:34:08;6.20;99.90
80426;DHT22;69766;51.476;5.704;2023-12-20T07:36:41;6.10;99.90
80426;DHT22;69766;51.476;5.704;2023-12-20T07:39:09;6.10;99.90
80426;DHT22;69766;51.476;5.704;2023-12-20T07:41:35;6.10;99.90
80426;DHT22;69766;51.476;5.704;2023-12-20T07:44:01;6.20;99.90
80426;DHT22;69766;51.476;5.704;2023-12-20T07:46:38;6.20;99.90
80426;DHT22;69766;51.476;5.704;2023-12-20T07:49:07;6.20;99.90
80426;DHT22;69766;51.476;5.704;2023-12-20T07:51:34;6.20;99.90
80426;DHT22;69766;51.476;5.704;2023-12-20T07:53:59;6.20;99.90
80426;DHT22;69766;51.476;5.704;2023-12-20T07:56:25;6.20;99.90
80426;DHT22;69766;51.476;5.704;2023-12-20T07:58:51;6.20;99.90
80426;DHT22;69766;51.476;5.704;2023-12-20T08:01:23;6.30;99.90
80426;DHT22;69766;51.476;5.704;2023-12-20T08:03:52;6.30;99.90
80426;DHT22;69766;51.476;5.704;2023-12-20T08:06:23;6.30;99.90
80426;DHT22;69766;51.476;5.704;2023-12-20T08:08:49;6.30;99.90
80426;DHT22;69766;51.476;5.704;2023-12-20T08:11:26;6.30;99.90
80426;DHT22;69766;51.476;5.704;2023-12-20T08:14:01;6.30;99.90
80426;DHT22;69766;51.476;5.704;2023-12-20T08:16:36;6.30;99.90
80426;DHT22;69766;51.476;5.704;2023-12-20T08:19:35;6.40;99.90
80426;DHT22;69766;51.476;5.704;2023-12-20T08:25:17;6.50;99.90
80426;DHT22;69766;51.476;5.704;2023-12-20T08:27:46;6.50;99.90
80426;DHT22;69766;51.476;5.704;2023-12-20T08:30:34;6.60;99.90
80426;DHT22;69766;51.476;5.704;2023-12-20T08:33:03;6.50;99.90
80426;DHT22;69766;51.476;5.704;2023-12-20T08:35:28;6.60;99.90
80426;DHT22;69766;51.476;5.704;2023-12-20T08:37:57;6.60;99.90
80426;DHT22;69766;51.476;5.704;2023-12-20T08:40:35;6.60;99.90
80426;DHT22;69766;51.476;5.704;2023-12-20T08:43:11;6.70;99.90
80426;DHT22;69766;51.476;5.704;2023-12-20T08:46:03;6.70;99.90
80426;DHT22;69766;51.476;5.704;2023-12-20T08:49:12;6.60;99.90
80426;DHT22;69766;51.476;5.704;2023-12-20T08:51:39;6.70;99.90
80426;DHT22;69766;51.476;5.704;2023-12-20T09:00:02;6.60;99.90
80426;DHT22;69766;51.476;5.704;2023-12-20T09:02:36;6.50;99.90
80426;DHT22;69766;51.476;5.704;2023-12-20T09:05:13;6.70;99.90
80426;DHT22;69766;51.476;5.704;2023-12-20T09:07:48;6.70;99.90
80426;DHT22;69766;51.476;5.704;2023-12-20T09:10:47;6.70;99.90
80426;DHT22;69766;51.476;5.704;2023-12-20T09:19:35;6.70;99.90
80426;DHT22;69766;51.476;5.704;2023-12-20T09:22:36;6.70;99.90
80426;DHT22;69766;51.476;5.704;2023-12-20T09:25:33;6.60;99.90
80426;DHT22;69766;51.476;5.704;2023-12-20T09:28:32;6.70;99.90
80426;DHT22;69766;51.476;5.704;2023-12-20T09:31:10;6.60;99.90
80426;DHT22;69766;51.476;5.704;2023-12-20T09:33:55;6.70;99.90
80426;DHT22;69766;51.476;5.704;2023-12-20T09:36:42;6.70;99.90
80426;DHT22;69766;51.476;5.704;2023-12-20T09:39:21;6.60;99.90
80426;DHT22;69766;51.476;5.704;2023-12-20T09:42:17;6.70;99.90
80426;DHT22;69766;51.476;5.704;2023-12-20T09:48:47;6.70;99.90
80426;DHT22;69766;51.476;5.704;2023-12-20T09:51:57;6.80;99.90
80426;DHT22;69766;51.476;5.704;2023-12-20T09:55:24;6.80;99.90
80426;DHT22;69766;51.476;5.704;2023-12-20T09:58:11;6.90;99.90
80426;DHT22;69766;51.476;5.704;2023-12-20T10:00:47;7.00;99.90
80426;DHT22;69766;51.476;5.704;2023-12-20T10:03:19;7.00;99.90
80426;DHT22;69766;51.476;5.704;2023-12-20T10:06:23;7.00;99.90
80426;DHT22;69766;51.476;5.704;2023-12-20T10:08:50;7.00;99.90
80426;DHT22;69766;51.476;5.704;2023-12-20T10:14:38;7.10;99.90
80426;DHT22;69766;51.476;5.704;2023-12-20T10:17:09;7.10;99.90
80426;DHT22;69766;51.476;5.704;2023-12-20T10:19:59;7.10;99.90
80426;DHT22;69766;51.476;5.704;2023-12-20T10:22:49;7.00;99.90
80426;DHT22;69766;51.476;5.704;2023-12-20T10:25:39;7.10;99.90
80426;DHT22;69766;51.476;5.704;2023-12-20T10:28:35;7.00;99.90
80426;DHT22;69766;51.476;5.704;2023-12-20T10:31:34;7.10;99.90
80426;DHT22;69766;51.476;5.704;2023-12-20T10:34:52;7.10;99.90
80426;DHT22;69766;51.476;5.704;2023-12-20T10:37:39;7.30;99.90
80426;DHT22;69766;51.476;5.704;2023-12-20T10:40:06;7.20;99.90
80426;DHT22;69766;51.476;5.704;2023-12-20T10:42:42;7.20;99.90
80426;DHT22;69766;51.476;5.704;2023-12-20T10:45:17;7.20;99.90
80426;DHT22;69766;51.476;5.704;2023-12-20T10:47:55;7.20;99.90
80426;DHT22;69766;51.476;5.704;2023-12-20T10:50:23;7.20;99.90
80426;DHT22;69766;51.476;5.704;2023-12-20T10:53:16;7.20;99.90
80426;DHT22;69766;51.476;5.704;2023-12-20T10:56:01;7.20;99.90
80426;DHT22;69766;51.476;5.704;2023-12-20T10:58:51;7.20;99.90
80426;DHT22;69766;51.476;5.704;2023-12-20T11:01:18;7.20;99.90
80426;DHT22;69766;51.476;5.704;2023-12-20T11:04:10;7.20;99.90
80426;DHT22;69766;51.476;5.704;2023-12-20T11:07:06;7.20;99.90
80426;DHT22;69766;51.476;5.704;2023-12-20T11:09:46;7.20;99.90
80426;DHT22;69766;51.476;5.704;2023-12-20T11:12:37;7.20;99.90
80426;DHT22;69766;51.476;5.704;2023-12-20T11:15:35;7.20;99.90
80426;DHT22;69766;51.476;5.704;2023-12-20T11:18:06;7.30;99.90
80426;DHT22;69766;51.476;5.704;2023-12-20T11:20:42;7.20;99.90
80426;DHT22;69766;51.476;5.704;2023-12-20T11:23:23;7.20;99.90
80426;DHT22;69766;51.476;5.704;2023-12-20T11:29:58;7.30;99.90
80426;DHT22;69766;51.476;5.704;2023-12-20T11:32:37;7.40;99.90
80426;DHT22;69766;51.476;5.704;2023-12-20T11:35:30;7.50;99.90
80426;DHT22;69766;51.476;5.704;2023-12-20T11:39:01;7.30;99.90
80426;DHT22;69766;51.476;5.704;2023-12-20T11:41:36;7.20;99.90
80426;DHT22;69766;51.476;5.704;2023-12-20T11:44:14;7.30;99.90
80426;DHT22;69766;51.476;5.704;2023-12-20T11:46:58;7.20;99.90
80426;DHT22;69766;51.476;5.704;2023-12-20T11:49:49;7.20;99.90
80426;DHT22;69766;51.476;5.704;2023-12-20T11:52:44;7.10;99.90
80426;DHT22;69766;51.476;5.704;2023-12-20T11:55:21;7.00;99.90
80426;DHT22;69766;51.476;5.704;2023-12-20T12:04:16;7.00;99.90
80426;DHT22;69766;51.476;5.704;2023-12-20T12:06:45;6.90;99.90
80426;DHT22;69766;51.476;5.704;2023-12-20T12:09:13;7.00;99.90
80426;DHT22;69766;51.476;5.704;2023-12-20T12:14:38;6.90;99.90
80426;DHT22;69766;51.476;5.704;2023-12-20T12:17:14;7.00;99.90
80426;DHT22;69766;51.476;5.704;2023-12-20T12:19:41;6.90;99.90
80426;DHT22;69766;51.476;5.704;2023-12-20T12:22:12;6.90;99.90
80426;DHT22;69766;51.476;5.704;2023-12-20T12:24:43;6.80;99.90
80426;DHT22;69766;51.476;5.704;2023-12-20T12:27:13;6.90;99.90
80426;DHT22;69766;51.476;5.704;2023-12-20T12:30:03;6.90;99.90
80426;DHT22;69766;51.476;5.704;2023-12-20T12:32:29;6.90;99.90
80426;DHT22;69766;51.476;5.704;2023-12-20T12:34:55;6.90;99.90
80426;DHT22;69766;51.476;5.704;2023-12-20T12:37:22;6.90;99.90
80426;DHT22;69766;51.476;5.704;2023-12-20T12:40:10;6.90;99.90
80426;DHT22;69766;51.476;5.704;2023-12-20T12:42:37;6.90;99.90
80426;DHT22;69766;51.476;5.704;2023-12-20T12:45:03;6.90;99.90
80426;DHT22;69766;51.476;5.704;2023-12-20T12:47:29;6.90;99.90
80426;DHT22;69766;51.476;5.704;2023-12-20T12:49:54;7.00;99.90
80426;DHT22;69766;51.476;5.704;2023-12-20T12:52:20;7.00;99.90
80426;DHT22;69766;51.476;5.704;2023-12-20T12:54:46;7.00;99.90
80426;DHT22;69766;51.476;5.704;2023-12-20T12:57:13;7.20;99.90
80426;DHT22;69766;51.476;5.704;2023-12-20T12:59:39;7.20;99.90
80426;DHT22;69766;51.476;5.704;2023-12-20T13:02:08;7.20;99.90
80426;DHT22;69766;51.476;5.704;2023-12-20T13:04:34;7.20;99.90
80426;DHT22;69766;51.476;5.704;2023-12-20T13:07:00;7.30;99.90
80426;DHT22;69766;51.476;5.704;2023-12-20T13:09:25;7.30;99.90
80426;DHT22;69766;51.476;5.704;2023-12-20T13:11:51;7.40;99.90
80426;DHT22;69766;51.476;5.704;2023-12-20T13:14:17;7.40;99.90
80426;DHT22;69766;51.476;5.704;2023-12-20T13:16:49;7.40;99.90
80426;DHT22;69766;51.476;5.704;2023-12-20T13:19:20;7.40;99.90
80426;DHT22;69766;51.476;5.704;2023-12-20T13:21:53;7.50;99.90
80426;DHT22;69766;51.476;5.704;2023-12-20T13:24:20;7.60;99.90
80426;DHT22;69766;51.476;5.704;2023-12-20T13:26:45;7.60;99.90
80426;DHT22;69766;51.476;5.704;2023-12-20T13:29:11;7.70;99.90
80426;DHT22;69766;51.476;5.704;2023-12-20T13:31:40;7.70;99.90
80426;DHT22;69766;51.476;5.704;2023-12-20T13:34:06;7.80;99.90
80426;DHT22;69766;51.476;5.704;2023-12-20T13:36:35;7.80;99.90
80426;DHT22;69766;51.476;5.704;2023-12-20T13:39:03;7.80;99.90
80426;DHT22;69766;51.476;5.704;2023-12-20T13:41:32;7.80;99.90
80426;DHT22;69766;51.476;5.704;2023-12-20T13:47:38;7.80;99.90
80426;DHT22;69766;51.476;5.704;2023-12-20T13:50:04;7.90;99.90
80426;DHT22;69766;51.476;5.704;2023-12-20T13:52:30;7.90;99.90
80426;DHT22;69766;51.476;5.704;2023-12-20T13:54:59;7.90;99.90
80426;DHT22;69766;51.476;5.704;2023-12-20T13:57:28;7.90;99.90
80426;DHT22;69766;51.476;5.704;2023-12-20T14:00:06;7.90;99.90
80426;DHT22;69766;51.476;5.704;2023-12-20T14:02:41;7.80;99.90
80426;DHT22;69766;51.476;5.704;2023-12-20T14:05:10;7.70;99.90
80426;DHT22;69766;51.476;5.704;2023-12-20T14:07:36;7.70;99.90
80426;DHT22;69766;51.476;5.704;2023-12-20T14:10:03;7.80;99.90
80426;DHT22;69766;51.476;5.704;2023-12-20T14:12:32;7.60;99.90
80426;DHT22;69766;51.476;5.704;2023-12-20T14:15:04;7.80;99.90
80426;DHT22;69766;51.476;5.704;2023-12-20T14:17:40;7.80;99.90
80426;DHT22;69766;51.476;5.704;2023-12-20T14:20:17;7.90;99.90
80426;DHT22;69766;51.476;5.704;2023-12-20T14:22:43;7.90;99.90
80426;DHT22;69766;51.476;5.704;2023-12-20T14:25:15;7.80;99.90
80426;DHT22;69766;51.476;5.704;2023-12-20T14:27:44;7.90;99.90
80426;DHT22;69766;51.476;5.704;2023-12-20T14:30:15;7.80;99.90
80426;DHT22;69766;51.476;5.704;2023-12-20T14:32:44;7.80;99.90
80426;DHT22;69766;51.476;5.704;2023-12-20T14:35:14;7.80;99.90
80426;DHT22;69766;51.476;5.704;2023-12-20T14:37:40;7.80;99.90
80426;DHT22;69766;51.476;5.704;2023-12-20T14:40:09;7.70;99.90
80426;DHT22;69766;51.476;5.704;2023-12-20T14:42:40;7.80;99.90
80426;DHT22;69766;51.476;5.704;2023-12-20T14:47:56;7.80;99.90
80426;DHT22;69766;51.476;5.704;2023-12-20T14:50:48;7.70;99.90
80426;DHT22;69766;51.476;5.704;2023-12-20T14:53:27;7.70;99.90
80426;DHT22;69766;51.476;5.704;2023-12-20T14:56:23;7.70;99.90
80426;DHT22;69766;51.476;5.704;2023-12-20T14:59:12;7.70;99.90
80426;DHT22;69766;51.476;5.704;2023-12-20T15:01:42;7.70;99.90
80426;DHT22;69766;51.476;5.704;2023-12-20T15:04:11;7.70;99.90
80426;DHT22;69766;51.476;5.704;2023-12-20T15:10:07;7.70;99.90
80426;DHT22;69766;51.476;5.704;2023-12-20T15:12:33;7.70;99.90
80426;DHT22;69766;51.476;5.704;2023-12-20T15:15:03;7.70;99.90
80426;DHT22;69766;51.476;5.704;2023-12-20T15:17:36;7.80;99.90
80426;DHT22;69766;51.476;5.704;2023-12-20T15:20:05;7.80;99.90
80426;DHT22;69766;51.476;5.704;2023-12-20T15:22:34;7.80;99.90
80426;DHT22;69766;51.476;5.704;2023-12-20T15:25:00;7.70;99.90
80426;DHT22;69766;51.476;5.704;2023-12-20T15:27:30;7.80;99.90
80426;DHT22;69766;51.476;5.704;2023-12-20T15:29:56;7.80;99.90
80426;DHT22;69766;51.476;5.704;2023-12-20T15:32:22;7.80;99.90
80426;DHT22;69766;51.476;5.704;2023-12-20T15:34:48;7.80;99.90
80426;DHT22;69766;51.476;5.704;2023-12-20T15:37:14;7.70;99.90
80426;DHT22;69766;51.476;5.704;2023-12-20T15:39:52;7.80;99.90
80426;DHT22;69766;51.476;5.704;2023-12-20T15:42:19;7.80;99.90
80426;DHT22;69766;51.476;5.704;2023-12-20T15:44:45;7.90;99.90
80426;DHT22;69766;51.476;5.704;2023-12-20T15:47:11;7.80;99.90
80426;DHT22;69766;51.476;5.704;2023-12-20T15:49:37;7.90;99.90
80426;DHT22;69766;51.476;5.704;2023-12-20T15:52:06;7.90;99.90
80426;DHT22;69766;51.476;5.704;2023-12-20T15:54:32;7.80;99.90
80426;DHT22;69766;51.476;5.704;2023-12-20T15:56:58;7.80;99.90
80426;DHT22;69766;51.476;5.704;2023-12-20T15:59:27;7.90;99.90
80426;DHT22;69766;51.476;5.704;2023-12-20T16:01:56;7.80;99.90
80426;DHT22;69766;51.476;5.704;2023-12-20T16:04:22;7.80;99.90
80426;DHT22;69766;51.476;5.704;2023-12-20T16:06:49;7.80;99.90
80426;DHT22;69766;51.476;5.704;2023-12-20T16:09:24;7.80;99.90
80426;DHT22;69766;51.476;5.704;2023-12-20T16:11:53;7.80;99.90
80426;DHT22;69766;51.476;5.704;2023-12-20T16:14:19;7.80;99.90
80426;DHT22;69766;51.476;5.704;2023-12-20T16:16:49;7.80;99.90
80426;DHT22;69766;51.476;5.704;2023-12-20T16:19:20;7.80;99.90
80426;DHT22;69766;51.476;5.704;2023-12-20T16:21:49;7.80;99.90
80426;DHT22;69766;51.476;5.704;2023-12-20T16:24:47;7.80;99.90
80426;DHT22;69766;51.476;5.704;2023-12-20T16:27:25;7.80;99.90
80426;DHT22;69766;51.476;5.704;2023-12-20T16:30:17;7.70;99.90
80426;DHT22;69766;51.476;5.704;2023-12-20T16:32:55;7.80;99.90
80426;DHT22;69766;51.476;5.704;2023-12-20T16:35:27;7.70;99.90
80426;DHT22;69766;51.476;5.704;2023-12-20T16:37:57;7.60;99.90
80426;DHT22;69766;51.476;5.704;2023-12-20T16:40:23;7.70;99.90
80426;DHT22;69766;51.476;5.704;2023-12-20T16:42:53;7.80;99.90
80426;DHT22;69766;51.476;5.704;2023-12-20T16:45:30;7.70;99.90
80426;DHT22;69766;51.476;5.704;2023-12-20T16:47:56;7.70;99.90
80426;DHT22;69766;51.476;5.704;2023-12-20T16:50:24;7.70;99.90
80426;DHT22;69766;51.476;5.704;2023-12-20T16:52:56;7.70;99.90
80426;DHT22;69766;51.476;5.704;2023-12-20T16:55:58;7.70;99.90
80426;DHT22;69766;51.476;5.704;2023-12-20T16:58:36;7.70;99.90
80426;DHT22;69766;51.476;5.704;2023-12-20T17:01:06;7.70;99.90
80426;DHT22;69766;51.476;5.704;2023-12-20T17:03:40;7.70;99.90
80426;DHT22;69766;51.476;5.704;2023-12-20T17:06:08;7.70;99.90
80426;DHT22;69766;51.476;5.704;2023-12-20T17:08:57;7.80;99.90
80426;DHT22;69766;51.476;5.704;2023-12-20T17:14:58;7.80;99.90
80426;DHT22;69766;51.476;5.704;2023-12-20T17:17:32;7.80;99.90
80426;DHT22;69766;51.476;5.704;2023-12-20T17:20:27;7.80;99.90
80426;DHT22;69766;51.476;5.704;2023-12-20T17:22:55;7.80;99.90
80426;DHT22;69766;51.476;5.704;2023-12-20T17:25:47;7.90;99.90
80426;DHT22;69766;51.476;5.704;2023-12-20T17:31:12;7.80;99.90
80426;DHT22;69766;51.476;5.704;2023-12-20T17:34:23;7.80;99.90
80426;DHT22;69766;51.476;5.704;2023-12-20T17:40:33;7.80;99.90
80426;DHT22;69766;51.476;5.704;2023-12-20T17:49:52;7.80;99.90
80426;DHT22;69766;51.476;5.704;2023-12-20T17:52:29;7.70;99.90
80426;DHT22;69766;51.476;5.704;2023-12-20T17:55:29;7.70;99.90
80426;DHT22;69766;51.476;5.704;2023-12-20T18:01:19;7.70;99.90
80426;DHT22;69766;51.476;5.704;2023-12-20T18:04:28;7.80;99.90
80426;DHT22;69766;51.476;5.704;2023-12-20T18:07:09;7.80;99.90
80426;DHT22;69766;51.476;5.704;2023-12-20T18:09:51;7.80;99.90
80426;DHT22;69766;51.476;5.704;2023-12-20T18:12:32;7.80;99.90
80426;DHT22;69766;51.476;5.704;2023-12-20T18:15:21;7.80;99.90
80426;DHT22;69766;51.476;5.704;2023-12-20T18:20:57;7.80;99.90
80426;DHT22;69766;51.476;5.704;2023-12-20T18:23:52;7.90;99.90
80426;DHT22;69766;51.476;5.704;2023-12-20T18:26:24;7.90;99.90
80426;DHT22;69766;51.476;5.704;2023-12-20T18:35:54;8.00;99.90
80426;DHT22;69766;51.476;5.704;2023-12-20T18:44:51;8.10;99.90
80426;DHT22;69766;51.476;5.704;2023-12-20T18:48:05;8.10;99.90
80426;DHT22;69766;51.476;5.704;2023-12-20T18:54:35;8.20;99.90
80426;DHT22;69766;51.476;5.704;2023-12-20T18:57:40;8.20;99.90
80426;DHT22;69766;51.476;5.704;2023-12-20T19:00:17;8.20;99.90
80426;DHT22;69766;51.476;5.704;2023-12-20T19:02:54;8.30;99.90
80426;DHT22;69766;51.476;5.704;2023-12-20T19:05:55;8.30;99.90
80426;DHT22;69766;51.476;5.704;2023-12-20T19:12:17;8.40;99.90
80426;DHT22;69766;51.476;5.704;2023-12-20T19:15:23;8.40;99.90
80426;DHT22;69766;51.476;5.704;2023-12-20T19:21:07;8.40;99.90
80426;DHT22;69766;51.476;5.704;2023-12-20T19:23:55;8.50;99.90
80426;DHT22;69766;51.476;5.704;2023-12-20T19:27:05;8.50;99.90
80426;DHT22;69766;51.476;5.704;2023-12-20T19:29:51;8.50;99.90
80426;DHT22;69766;51.476;5.704;2023-12-20T19:32:48;8.40;99.90
80426;DHT22;69766;51.476;5.704;2023-12-20T19:35:48;8.40;99.90
80426;DHT22;69766;51.476;5.704;2023-12-20T19:38:19;8.40;99.90
80426;DHT22;69766;51.476;5.704;2023-12-20T19:41:04;8.30;99.90
80426;DHT22;69766;51.476;5.704;2023-12-20T19:47:54;8.30;99.90
80426;DHT22;69766;51.476;5.704;2023-12-20T19:50:33;8.30;99.90
80426;DHT22;69766;51.476;5.704;2023-12-20T19:53:23;8.40;99.90
80426;DHT22;69766;51.476;5.704;2023-12-20T19:56:10;8.40;99.90
80426;DHT22;69766;51.476;5.704;2023-12-20T19:58:47;8.40;99.90
80426;DHT22;69766;51.476;5.704;2023-12-20T20:01:35;8.40;99.90
80426;DHT22;69766;51.476;5.704;2023-12-20T20:04:25;8.40;99.90
80426;DHT22;69766;51.476;5.704;2023-12-20T20:07:12;8.40;99.90
80426;DHT22;69766;51.476;5.704;2023-12-20T20:10:07;8.50;99.90
80426;DHT22;69766;51.476;5.704;2023-12-20T20:13:21;8.50;99.90
80426;DHT22;69766;51.476;5.704;2023-12-20T20:15:51;8.50;99.90
80426;DHT22;69766;51.476;5.704;2023-12-20T20:18:43;8.50;99.90
80426;DHT22;69766;51.476;5.704;2023-12-20T20:21:12;8.50;99.90
80426;DHT22;69766;51.476;5.704;2023-12-20T20:24:06;8.60;99.90
80426;DHT22;69766;51.476;5.704;2023-12-20T20:26:37;8.60;99.90
80426;DHT22;69766;51.476;5.704;2023-12-20T20:29:12;8.60;99.90
80426;DHT22;69766;51.476;5.704;2023-12-20T20:31:41;8.60;99.90
80426;DHT22;69766;51.476;5.704;2023-12-20T20:34:13;8.60;99.90
80426;DHT22;69766;51.476;5.704;2023-12-20T20:36:51;8.60;99.90
80426;DHT22;69766;51.476;5.704;2023-12-20T20:39:17;8.60;99.90
80426;DHT22;69766;51.476;5.704;2023-12-20T20:41:44;8.70;99.90
80426;DHT22;69766;51.476;5.704;2023-12-20T20:44:09;8.60;99.90
80426;DHT22;69766;51.476;5.704;2023-12-20T20:49:28;8.80;99.90
80426;DHT22;69766;51.476;5.704;2023-12-20T20:51:54;8.80;99.90
80426;DHT22;69766;51.476;5.704;2023-12-20T20:54:43;8.70;99.90
80426;DHT22;69766;51.476;5.704;2023-12-20T20:57:30;8.70;99.90
80426;DHT22;69766;51.476;5.704;2023-12-20T21:00:09;8.70;99.90
80426;DHT22;69766;51.476;5.704;2023-12-20T21:02:40;8.60;99.90
80426;DHT22;69766;51.476;5.704;2023-12-20T21:05:09;8.70;99.90
80426;DHT22;69766;51.476;5.704;2023-12-20T21:07:40;8.70;99.90
80426;DHT22;69766;51.476;5.704;2023-12-20T21:10:10;8.70;99.90
80426;DHT22;69766;51.476;5.704;2023-12-20T21:12:39;8.60;99.90
80426;DHT22;69766;51.476;5.704;2023-12-20T21:15:08;8.70;99.90
80426;DHT22;69766;51.476;5.704;2023-12-20T21:20:22;8.60;99.90
80426;DHT22;69766;51.476;5.704;2023-12-20T21:22:56;8.60;99.90
80426;DHT22;69766;51.476;5.704;2023-12-20T21:25:40;8.50;99.90
80426;DHT22;69766;51.476;5.704;2023-12-20T21:28:10;8.60;99.90
80426;DHT22;69766;51.476;5.704;2023-12-20T21:30:43;8.40;99.90
80426;DHT22;69766;51.476;5.704;2023-12-20T21:33:32;8.40;99.90
80426;DHT22;69766;51.476;5.704;2023-12-20T21:36:52;8.30;99.90
80426;DHT22;69766;51.476;5.704;2023-12-20T21:40:01;8.40;99.90
80426;DHT22;69766;51.476;5.704;2023-12-20T21:56:06;8.20;99.90
80426;DHT22;69766;51.476;5.704;2023-12-20T21:59:00;8.20;99.90
80426;DHT22;69766;51.476;5.704;2023-12-20T22:01:52;8.20;99.90
80426;DHT22;69766;51.476;5.704;2023-12-20T22:21:42;8.40;99.90
80426;DHT22;69766;51.476;5.704;2023-12-20T22:35:37;8.40;99.90
80426;DHT22;69766;51.476;5.704;2023-12-20T22:38:31;8.40;99.90
80426;DHT22;69766;51.476;5.704;2023-12-20T23:21:52;8.50;99.90
80426;DHT22;69766;51.476;5.704;2023-12-20T23:25:20;8.50;99.90
80426;DHT22;69766;51.476;5.704;2023-12-20T23:34:40;8.50;99.90
80426;DHT22;69766;51.476;5.704;2023-12-20T23:53:23;8.60;99.90
80426;DHT22;69766;51.476;5.704;2023-12-20T23:56:02;8.60;99.90
80426;DHT22;69766;51.476;5.704;2023-12-20T23:58:37;8.60;99.90
